Pagina principale
METAR-TAF:

METAR-TAF

Aeroporti :

Aeroporto di Yaoundé-Nsimalen

Yaoundé, Camerun

latitudine: 03-50N, longitudine: 011-31E, altezza: 751 m

Osservazione

Il bollettino è stato emesso 29 minuti fa, alle 19:00 UTC
Temperature 23°C
Umidità 89%
Pressione 1018 hPa
Visibilità: 8000 m
Nubi sparse ad un'altezza di 1000 ft

METAR: FKYS 141900Z /////KT 8000 SCT010 23/21 Q1018 NOSIG

Ora: 20:29 (19:29 UTC)

Previsione

Il bollettino è stato emesso 2 ore e 29 minuti fa, alle 17:00 UTC
Previsione valida dal 14 alle 18 UTC al 15 alle 18 UTC
Vento 6 kt da direzioni variabili
Visibilità 10 km o più
Nubi sparse ad un'altezza di 1600 ft
Poco nuvoloso ad un'altezza di 2300 ft, Cumulonembo.
Evoluzione graduale
dal 14 alle 20 UTC al 14 alle 22 UTC
Nuvoloso ad un'altezza di 600 ft
Evoluzione graduale
dal 15 alle 08 UTC al 15 alle 10 UTC
Nuvoloso ad un'altezza di 1600 ft

TAF: FKYS 141700Z 1418/1518 VRB06KT 9999 SCT016 FEW023CB BECMG 1420/1422 BKN006 BECMG 1508/1510 BKN016

Osservazioni e previsioni meteorologiche di più di 4000 aeroporti (messaggi METAR e TAF).

Le stazioni disponibili sono rappresentate dai dischi gialli e rossi sulla carta.

Puntare il mouse per vedere il nome della stazione.

Clicca sopra per visualizzare le osservazioni e previsioni meteorologiche.

Per cambiare la mappa : fare clic sui pulsanti verdi con una croce nera per ingrandire, il pulsante verde con un trattino per diminuire, o sulla freccia verde per le mappe adiacenti.


METAR-TAF: